This is the latest recevied weather packets stored in our database for station/object CE3TDM-12. If no packets are shown the sender has not sent any weather packets the latest 10 day(s).
| Time | Temp. | Humidity | Pressure | Rain* | Wind** | Luminosity | Snow |
|---|---|---|---|---|---|---|---|
| 1777248036 | 10° C | 41% | 780.3 hPa | - | - | - | - |
| 1777247736 | 10° C | 41% | 780.3 hPa | - | - | - | - |
| 1777245426 | 11.11° C | 41% | 780.3 hPa | - | - | - | - |
| 1777245125 | 11.11° C | 42% | 780.4 hPa | - | - | - | - |
| 1777244825 | 11.11° C | 42% | 780.3 hPa | - | - | - | - |
| 1777244524 | 11.67° C | 42% | 780.4 hPa | - | - | - | - |
| 1777244224 | 11.67° C | 42% | 780.4 hPa | - | - | - | - |
| 1777243923 | 12.22° C | 42% | 780.3 hPa | - | - | - | - |
| 1777243623 | 12.22° C | 42% | 780.2 hPa | - | - | - | - |
| 1777243322 | 12.78° C | 42% | 780.2 hPa | - | - | - | - |
| 1777243022 | 12.78° C | 41% | 779.9 hPa | - | - | - | - |
| 1777242721 | 13.33° C | 42% | 780.1 hPa | - | - | - | - |
| 1777242421 | 13.33° C | 41% | 779.9 hPa | - | - | - | - |
| 1777242121 | 13.89° C | 42% | 779.8 hPa | - | - | - | - |
| 1777241820 | 14.44° C | 42% | 779.8 hPa | - | - | - | - |
| 1777239082 | 19.44° C | 39% | 779.3 hPa | - | - | - | - |
| 1777238782 | 20° C | 39% | 779.2 hPa | - | - | - | - |
| 1777238482 | 20° C | 38% | 779.1 hPa | - | - | - | - |
| 1777238181 | 20.56° C | 38% | 779.2 hPa | - | - | - | - |
| 1777237881 | 20.56° C | 38% | 779.1 hPa | - | - | - | - |
| 1777237580 | 20.56° C | 39% | 779 hPa | - | - | - | - |
| 1777237280 | 20.56° C | 38% | 778.9 hPa | - | - | - | - |
| 1777236979 | 21.11° C | 38% | 779 hPa | - | - | - | - |
| 1777236679 | 21.11° C | 38% | 779 hPa | - | - | - | - |
| 1777236378 | 21.67° C | 38% | 779.1 hPa | - | - | - | - |
* Rain since midnight (hover to see other rain measurements)
** Current wind speed in m/s (hover to see current wind gust speed)